createdAt,value
2023-03-26T00:02:51.943Z,70.36
2023-03-26T00:06:04.250Z,71.26
2023-03-26T00:09:10.322Z,72.16
2023-03-26T00:12:12.869Z,71.68
2023-03-26T00:15:15.449Z,71.38
2023-03-26T00:18:20.002Z,71.78
2023-03-26T00:21:26.182Z,72.28
2023-03-26T00:24:30.647Z,71.26
2023-03-26T00:27:33.832Z,70.83
2023-03-26T00:30:36.656Z,71.23
2023-03-26T00:33:40.640Z,71.08
2023-03-26T00:36:43.963Z,71.22
2023-03-26T00:39:49.136Z,70.31
2023-03-26T00:42:51.678Z,70.58
2023-03-26T00:45:55.826Z,71.16
2023-03-26T00:48:59.756Z,71.14
2023-03-26T00:52:03.091Z,70.15
2023-03-26T00:55:08.356Z,69.86
2023-03-26T00:58:10.979Z,68.99
2023-03-26T01:01:16.058Z,69.52
2023-03-26T01:04:24.149Z,69.22
2023-03-26T01:07:29.076Z,69.49
2023-03-26T01:10:38.626Z,69.49
2023-03-26T01:13:44.725Z,69.47
2023-03-26T01:16:52.012Z,69.96
2023-03-26T01:19:59.004Z,69.90
2023-03-26T01:23:05.252Z,69.77
2023-03-26T01:26:13.453Z,69.20
2023-03-26T01:29:23.685Z,68.49
2023-03-26T01:32:37.661Z,68.12
2023-03-26T01:35:45.794Z,67.91
2023-03-26T01:38:52.698Z,67.87
2023-03-26T01:41:58.955Z,67.66
2023-03-26T01:45:05.171Z,67.19
2023-03-26T01:48:08.237Z,67.25
2023-03-26T01:51:12.937Z,66.33
2023-03-26T01:54:18.257Z,66.09
2023-03-26T01:57:30.187Z,66.04
2023-03-26T02:00:34.978Z,65.59
2023-03-26T02:03:41.872Z,65.63
2023-03-26T02:06:47.329Z,66.57
2023-03-26T02:09:52.702Z,66.13
2023-03-26T02:12:57.270Z,65.79
2023-03-26T02:16:01.515Z,64.78
2023-03-26T02:19:05.006Z,64.55
2023-03-26T02:22:10.979Z,64.73
2023-03-26T02:25:15.382Z,64.87
2023-03-26T02:28:20.017Z,65.56
2023-03-26T02:31:26.124Z,65.66
2023-03-26T02:34:28.759Z,65.86
2023-03-26T02:37:33.842Z,65.50
2023-03-26T02:40:36.347Z,65.66
2023-03-26T02:43:40.160Z,65.49
2023-03-26T02:46:42.723Z,66.02
2023-03-26T02:49:45.495Z,66.65
2023-03-26T02:52:49.811Z,66.21
2023-03-26T02:55:52.487Z,67.09
2023-03-26T02:58:56.779Z,66.88
2023-03-26T03:01:59.287Z,67.01
2023-03-26T03:05:02.050Z,66.47
2023-03-26T03:08:05.939Z,65.87
2023-03-26T03:11:10.865Z,66.35
2023-03-26T03:14:14.716Z,65.67
2023-03-26T03:17:17.204Z,65.62
2023-03-26T03:20:19.760Z,64.98
2023-03-26T03:23:22.247Z,65.29
2023-03-26T03:26:27.685Z,64.93
2023-03-26T03:29:31.692Z,65.42
2023-03-26T03:32:34.528Z,64.92
2023-03-26T03:35:37.773Z,65.14
2023-03-26T03:38:41.661Z,64.93
2023-03-26T03:41:44.310Z,65.31
2023-03-26T03:44:48.170Z,64.82
2023-03-26T03:47:50.724Z,64.62
2023-03-26T03:50:53.985Z,64.62
2023-03-26T03:53:56.774Z,64.36
2023-03-26T03:56:59.395Z,64.52
2023-03-26T04:00:06.347Z,64.31
2023-03-26T04:03:10.062Z,63.93
2023-03-26T04:06:12.806Z,63.53
2023-03-26T04:09:15.375Z,63.67
2023-03-26T04:12:17.924Z,63.42
2023-03-26T04:15:21.934Z,63.34
2023-03-26T04:18:24.439Z,63.41
2023-03-26T04:21:30.342Z,63.03
2023-03-26T04:24:38.216Z,63.48
2023-03-26T04:27:43.261Z,62.97
2023-03-26T04:30:47.075Z,63.03
2023-03-26T04:33:49.757Z,63.29
2023-03-26T04:36:54.314Z,63.37
2023-03-26T04:39:56.953Z,63.99
2023-03-26T04:43:02.233Z,64.10
2023-03-26T04:46:07.600Z,64.40
2023-03-26T04:49:10.576Z,65.02
2023-03-26T04:52:13.178Z,65.94
2023-03-26T04:55:21.893Z,66.07
2023-03-26T04:58:30.095Z,66.20
2023-03-26T05:01:37.750Z,66.11
2023-03-26T05:04:40.568Z,65.82
2023-03-26T05:07:43.264Z,64.58
2023-03-26T05:10:45.881Z,63.41
2023-03-26T05:13:48.388Z,63.40
2023-03-26T05:16:53.294Z,64.02
2023-03-26T05:19:55.815Z,63.71
2023-03-26T05:22:58.312Z,62.98
2023-03-26T05:26:00.814Z,61.65
2023-03-26T05:29:03.775Z,60.84
2023-03-26T05:32:07.964Z,60.41
2023-03-26T05:35:11.597Z,59.58
2023-03-26T05:38:13.917Z,59.38
2023-03-26T05:41:17.604Z,59.78
2023-03-26T05:44:19.981Z,58.45
2023-03-26T05:47:23.918Z,58.43
2023-03-26T05:50:26.451Z,58.31
2023-03-26T05:53:28.928Z,57.60
2023-03-26T05:56:31.860Z,56.75
2023-03-26T05:59:34.532Z,54.61
2023-03-26T06:02:38.904Z,55.75
2023-03-26T06:05:42.928Z,55.09
2023-03-26T06:08:46.804Z,55.16
2023-03-26T06:11:49.464Z,56.32
2023-03-26T06:14:51.970Z,58.54
2023-03-26T06:17:56.027Z,60.00
2023-03-26T06:20:58.701Z,59.86
2023-03-26T06:24:01.329Z,60.16
2023-03-26T06:27:03.953Z,59.79
2023-03-26T06:30:07.835Z,60.26
2023-03-26T06:33:11.753Z,59.89
2023-03-26T06:36:14.377Z,59.59
2023-03-26T06:39:17.054Z,59.29
2023-03-26T06:42:19.916Z,58.85
2023-03-26T06:45:22.443Z,58.67
2023-03-26T06:48:26.691Z,58.43
2023-03-26T06:51:29.240Z,58.02
2023-03-26T06:54:31.911Z,57.52
2023-03-26T06:57:34.420Z,57.50
2023-03-26T07:00:36.955Z,57.66
2023-03-26T07:03:41.007Z,58.30
2023-03-26T07:06:43.723Z,58.83
2023-03-26T07:09:46.194Z,58.38
2023-03-26T07:12:48.820Z,58.15
2023-03-26T07:15:51.283Z,57.65
2023-03-26T07:18:55.314Z,57.72
2023-03-26T07:21:58.487Z,57.23
2023-03-26T07:25:01.614Z,57.83
2023-03-26T07:28:12.430Z,58.11
2023-03-26T07:31:25.061Z,58.32
2023-03-26T07:34:39.125Z,59.15
2023-03-26T07:37:48.056Z,59.96
2023-03-26T07:40:58.195Z,60.72
2023-03-26T07:44:11.471Z,62.15
2023-03-26T07:47:25.861Z,63.51
2023-03-26T07:50:30.597Z,64.35
2023-03-26T07:53:33.693Z,65.01
2023-03-26T07:56:40.028Z,65.52
2023-03-26T07:59:46.942Z,66.74
2023-03-26T08:03:12.245Z,68.10
2023-03-26T08:06:18.796Z,68.14
2023-03-26T08:09:24.968Z,68.83
2023-03-26T08:12:38.354Z,69.45
2023-03-26T08:15:47.637Z,69.67
2023-03-26T08:18:54.259Z,70.39
2023-03-26T08:22:02.058Z,70.38
2023-03-26T08:25:18.658Z,70.01
2023-03-26T08:28:32.432Z,70.90
2023-03-26T08:31:39.012Z,70.82
2023-03-26T08:34:41.946Z,71.12
2023-03-26T08:37:45.889Z,72.23
2023-03-26T08:41:17.016Z,72.27
2023-03-26T08:44:53.452Z,72.75
2023-03-26T08:48:41.198Z,72.62
2023-03-26T08:52:16.352Z,71.51
2023-03-26T08:55:36.468Z,70.27
2023-03-26T08:59:09.538Z,69.30
2023-03-26T09:02:25.292Z,68.18
2023-03-26T09:06:01.603Z,65.90
2023-03-26T09:09:40.808Z,66.07
2023-03-26T09:13:15.252Z,64.38
2023-03-26T09:16:33.545Z,59.16
2023-03-26T09:19:58.459Z,59.21
2023-03-26T09:23:42.552Z,60.63
2023-03-26T09:26:47.782Z,61.25
2023-03-26T09:30:19.812Z,58.86
2023-03-26T09:33:57.117Z,58.81
2023-03-26T09:37:12.199Z,58.28
2023-03-26T09:40:18.674Z,55.14
2023-03-26T09:43:50.515Z,54.28
2023-03-26T09:47:07.956Z,54.09
2023-03-26T09:50:21.588Z,51.12
2023-03-26T09:53:50.429Z,52.20
2023-03-26T09:56:57.674Z,50.38
2023-03-26T10:00:09.764Z,49.90
2023-03-26T10:03:30.459Z,52.27
2023-03-26T10:06:38.747Z,49.41
2023-03-26T10:09:52.111Z,49.30
2023-03-26T10:13:08.318Z,49.90
2023-03-26T10:16:22.637Z,51.69
2023-03-26T10:19:36.848Z,50.80
2023-03-26T10:22:48.547Z,50.75
2023-03-26T10:25:59.937Z,48.71
2023-03-26T10:29:25.327Z,49.28
2023-03-26T10:32:33.715Z,50.75
2023-03-26T10:35:46.531Z,51.75
2023-03-26T10:39:36.781Z,52.46
2023-03-26T10:43:14.280Z,50.71
2023-03-26T10:46:28.982Z,48.66
2023-03-26T10:49:49.096Z,46.52
2023-03-26T10:52:56.115Z,43.69
2023-03-26T10:56:02.189Z,43.73
2023-03-26T10:59:08.173Z,40.32
2023-03-26T11:02:30.624Z,39.19
2023-03-26T11:05:47.339Z,39.02
2023-03-26T11:08:56.571Z,38.43
2023-03-26T11:12:25.517Z,38.39
2023-03-26T11:15:30.076Z,39.12
2023-03-26T11:18:38.311Z,38.50
2023-03-26T11:21:45.294Z,38.83
2023-03-26T11:25:05.548Z,39.09
2023-03-26T11:28:15.870Z,39.26
2023-03-26T11:31:21.104Z,40.15
2023-03-26T11:34:28.321Z,41.10
2023-03-26T11:37:34.302Z,41.24
2023-03-26T11:40:39.731Z,40.33
2023-03-26T11:43:42.450Z,40.13
2023-03-26T11:46:47.151Z,39.12
2023-03-26T11:49:51.864Z,37.75
2023-03-26T11:52:55.244Z,36.98
2023-03-26T11:56:02.351Z,35.68
2023-03-26T11:59:07.604Z,35.66
2023-03-26T12:02:20.808Z,36.16
2023-03-26T12:05:26.657Z,36.15
2023-03-26T12:08:35.187Z,33.99
2023-03-26T12:11:39.037Z,31.33
2023-03-26T12:14:43.844Z,31.98
2023-03-26T12:17:48.079Z,31.62
2023-03-26T12:21:08.246Z,39.47
2023-03-26T12:24:25.922Z,40.08
2023-03-26T12:27:30.861Z,38.20
2023-03-26T12:30:34.767Z,37.36
2023-03-26T12:33:38.954Z,35.83
2023-03-26T12:36:41.602Z,33.80
2023-03-26T12:40:15.528Z,31.88
2023-03-26T12:44:48.636Z,39.31
2023-03-26T12:48:00.999Z,40.26
2023-03-26T12:50:42.681Z,44.14
2023-03-26T12:54:00.347Z,43.16
2023-03-26T12:57:21.344Z,41.90
2023-03-26T13:00:32.664Z,38.97
2023-03-26T13:03:44.951Z,28.76
2023-03-26T13:07:02.044Z,21.10
2023-03-26T13:10:37.436Z,19.04
2023-03-26T13:14:13.611Z,16.95
2023-03-26T13:17:23.677Z,20.00
2023-03-26T13:20:32.957Z,24.17
2023-03-26T13:23:40.944Z,27.20
2023-03-26T13:26:53.196Z,28.24
2023-03-26T13:30:00.992Z,27.55
2023-03-26T13:33:20.905Z,28.58
2023-03-26T13:36:30.860Z,32.79
2023-03-26T13:39:39.015Z,34.34
2023-03-26T13:42:48.834Z,35.29
2023-03-26T13:45:56.268Z,33.17
2023-03-26T13:49:01.616Z,31.26
2023-03-26T13:52:06.965Z,31.77
2023-03-26T13:55:20.938Z,32.43
2023-03-26T13:58:34.419Z,34.29
2023-03-26T14:01:43.685Z,35.71
2023-03-26T14:04:48.849Z,36.21
2023-03-26T14:07:53.273Z,35.50
2023-03-26T14:10:58.502Z,35.94
2023-03-26T14:14:05.720Z,36.33
2023-03-26T14:17:15.696Z,38.75
2023-03-26T14:20:47.626Z,39.56
2023-03-26T14:24:20.184Z,39.82
2023-03-26T14:27:35.259Z,41.44
2023-03-26T14:31:10.201Z,41.27
2023-03-26T14:34:23.506Z,44.31
2023-03-26T14:37:49.218Z,46.44
2023-03-26T14:40:59.184Z,48.58
2023-03-26T14:44:47.979Z,59.68
2023-03-26T14:48:01.198Z,63.96
2023-03-26T14:51:12.360Z,67.76
2023-03-26T14:54:18.668Z,70.28
2023-03-26T14:58:01.865Z,69.41
2023-03-26T15:01:23.061Z,67.57
2023-03-26T15:04:58.847Z,68.07
2023-03-26T15:08:34.556Z,64.83
2023-03-26T15:11:47.424Z,63.35
2023-03-26T15:15:20.047Z,61.91
2023-03-26T15:19:17.650Z,61.69
2023-03-26T15:22:53.252Z,60.04
2023-03-26T15:26:14.331Z,60.36
2023-03-26T15:29:41.069Z,60.72
2023-03-26T15:32:57.953Z,62.84
2023-03-26T15:36:26.347Z,64.84
2023-03-26T15:39:59.490Z,67.07
2023-03-26T15:43:09.680Z,66.77
2023-03-26T15:46:33.596Z,66.34
2023-03-26T15:49:39.988Z,65.52
2023-03-26T15:52:48.754Z,66.29
2023-03-26T15:56:01.677Z,67.76
2023-03-26T15:59:11.971Z,67.57
2023-03-26T16:02:26.193Z,67.12
2023-03-26T16:05:37.795Z,66.35
2023-03-26T16:08:46.762Z,66.06
2023-03-26T16:11:54.810Z,66.38
2023-03-26T16:15:29.503Z,63.29
2023-03-26T16:18:35.923Z,61.28
2023-03-26T16:21:55.004Z,58.72
2023-03-26T16:25:27.309Z,58.63
2023-03-26T16:28:34.036Z,58.23
2023-03-26T16:31:39.271Z,59.14
2023-03-26T16:34:52.773Z,60.11
2023-03-26T16:38:05.628Z,61.17
2023-03-26T16:41:18.107Z,62.07
2023-03-26T16:44:27.768Z,61.47
2023-03-26T16:47:37.408Z,60.85
2023-03-26T16:50:46.195Z,61.80
2023-03-26T16:53:54.287Z,62.41
2023-03-26T16:57:03.131Z,63.75
2023-03-26T17:00:24.515Z,62.72
2023-03-26T17:03:37.710Z,63.25
2023-03-26T17:07:08.789Z,63.26
2023-03-26T17:10:16.554Z,62.46
2023-03-26T17:13:24.795Z,63.04
2023-03-26T17:16:30.592Z,63.30
2023-03-26T17:19:36.914Z,62.18
2023-03-26T17:22:45.057Z,62.31
2023-03-26T17:25:58.056Z,63.15
2023-03-26T17:29:09.217Z,62.77
2023-03-26T17:32:14.963Z,63.47
2023-03-26T17:35:18.140Z,63.13
2023-03-26T17:39:02.428Z,63.71
2023-03-26T17:42:19.688Z,63.38
2023-03-26T17:45:25.090Z,63.83
2023-03-26T17:48:38.866Z,63.76
2023-03-26T17:51:47.767Z,64.27
2023-03-26T17:54:53.115Z,63.77
2023-03-26T17:57:58.565Z,63.83
2023-03-26T18:01:06.594Z,64.58
2023-03-26T18:04:12.988Z,64.97
2023-03-26T18:07:36.489Z,64.40
2023-03-26T18:10:55.160Z,64.81
2023-03-26T18:14:22.926Z,64.25
2023-03-26T18:17:26.102Z,64.76
2023-03-26T18:20:29.483Z,64.88
2023-03-26T18:23:37.674Z,65.08
2023-03-26T18:26:43.419Z,65.44
2023-03-26T18:29:46.918Z,65.47
2023-03-26T18:33:00.150Z,64.76
2023-03-26T18:36:05.895Z,64.62
2023-03-26T18:39:13.353Z,64.89
2023-03-26T18:42:23.066Z,64.14
2023-03-26T18:45:29.131Z,64.67
2023-03-26T18:48:31.903Z,63.68
2023-03-26T18:51:43.233Z,64.62
2023-03-26T18:54:55.586Z,65.24
2023-03-26T18:57:59.481Z,65.73
2023-03-26T19:01:03.756Z,66.15
2023-03-26T19:04:07.950Z,65.47
2023-03-26T19:07:13.780Z,65.78
2023-03-26T19:10:21.163Z,66.04
2023-03-26T19:13:25.346Z,65.70
2023-03-26T19:16:33.571Z,65.13
2023-03-26T19:19:38.308Z,65.77
2023-03-26T19:22:42.212Z,64.91
2023-03-26T19:25:48.405Z,64.93
2023-03-26T19:28:53.621Z,64.69
2023-03-26T19:32:04.027Z,64.40
2023-03-26T19:35:20.539Z,63.82
2023-03-26T19:38:25.559Z,64.19
2023-03-26T19:41:32.883Z,65.05
2023-03-26T19:44:39.477Z,64.73
2023-03-26T19:47:48.571Z,64.77
2023-03-26T19:50:59.692Z,65.90
2023-03-26T19:54:06.096Z,66.51
2023-03-26T19:57:09.839Z,65.99
2023-03-26T20:00:14.481Z,66.28
2023-03-26T20:03:20.093Z,65.96
2023-03-26T20:06:33.936Z,65.55
2023-03-26T20:09:45.494Z,64.93
2023-03-26T20:12:48.096Z,65.47
2023-03-26T20:16:05.674Z,65.33
2023-03-26T20:19:08.890Z,65.71
2023-03-26T20:22:13.936Z,65.78
2023-03-26T20:25:19.913Z,65.66
2023-03-26T20:28:24.343Z,65.91
2023-03-26T20:31:29.996Z,64.95
2023-03-26T20:34:33.062Z,65.01
2023-03-26T20:37:35.982Z,64.02
2023-03-26T20:40:39.029Z,64.92
2023-03-26T20:43:42.379Z,65.42
2023-03-26T20:46:48.169Z,65.07
2023-03-26T20:49:50.830Z,66.00
2023-03-26T20:52:53.370Z,65.62
2023-03-26T20:55:56.536Z,65.46
2023-03-26T21:02:06.401Z,65.88
2023-03-26T21:05:14.583Z,65.07
2023-03-26T21:08:19.777Z,65.03
2023-03-26T21:11:27.334Z,64.15
2023-03-26T21:14:33.763Z,63.97
2023-03-26T21:17:38.767Z,64.26
2023-03-26T21:20:41.835Z,63.72
2023-03-26T21:23:46.739Z,63.28
2023-03-26T21:26:54.251Z,63.23
2023-03-26T21:29:58.086Z,63.65
2023-03-26T21:33:02.258Z,64.26
2023-03-26T21:36:05.668Z,65.78
2023-03-26T21:39:10.951Z,66.29
2023-03-26T21:42:14.363Z,66.88
2023-03-26T21:45:18.180Z,67.72
2023-03-26T21:48:22.483Z,69.41
2023-03-26T21:51:25.253Z,70.29
2023-03-26T21:54:30.204Z,71.76
2023-03-26T21:57:40.907Z,72.41
2023-03-26T22:00:54.765Z,73.02
2023-03-26T22:04:01.815Z,73.30
2023-03-26T22:07:06.659Z,73.42
2023-03-26T22:10:09.526Z,74.06
2023-03-26T22:13:12.033Z,74.06
2023-03-26T22:16:16.733Z,73.61
2023-03-26T22:19:20.793Z,74.10
2023-03-26T22:22:26.160Z,74.86
2023-03-26T22:25:28.763Z,74.75
2023-03-26T22:28:31.826Z,76.39
2023-03-26T22:31:34.833Z,76.67
2023-03-26T22:34:38.769Z,76.82
2023-03-26T22:37:41.676Z,76.13
2023-03-26T22:40:44.218Z,76.62
2023-03-26T22:43:47.099Z,77.01
2023-03-26T22:46:51.286Z,77.69
2023-03-26T22:49:55.831Z,76.73
2023-03-26T22:52:58.362Z,77.40
2023-03-26T22:56:01.520Z,77.28
2023-03-26T22:59:04.682Z,77.42
2023-03-26T23:02:07.271Z,77.73
2023-03-26T23:05:11.715Z,78.60
2023-03-26T23:08:14.186Z,77.98
2023-03-26T23:11:18.176Z,78.20
2023-03-26T23:14:21.768Z,79.33
2023-03-26T23:17:24.686Z,78.68
2023-03-26T23:20:29.878Z,78.83
2023-03-26T23:23:33.916Z,78.51
2023-03-26T23:26:49.520Z,78.77
2023-03-26T23:29:53.396Z,79.36
2023-03-26T23:32:57.169Z,78.28
2023-03-26T23:36:04.209Z,78.87
2023-03-26T23:39:10.934Z,79.02
2023-03-26T23:42:13.453Z,79.21
2023-03-26T23:45:16.530Z,79.59
2023-03-26T23:48:22.199Z,80.25
2023-03-26T23:51:26.176Z,79.70
2023-03-26T23:54:30.005Z,80.20
2023-03-26T23:57:32.509Z,80.62
